sensor_id;sensor_type;location;lat;lon;timestamp;P1;durP1;ratioP1;P2;durP2;ratioP2
15443;SDS011;7822;48.146;11.576;2022-07-29T00:01:13;1.83;;;1.13;;
15443;SDS011;7822;48.146;11.576;2022-07-29T00:08:16;2.30;;;1.10;;
15443;SDS011;7822;48.146;11.576;2022-07-29T00:10:46;1.50;;;1.40;;
15443;SDS011;7822;48.146;11.576;2022-07-29T00:13:14;1.65;;;1.17;;
15443;SDS011;7822;48.146;11.576;2022-07-29T00:15:42;2.17;;;1.58;;
15443;SDS011;7822;48.146;11.576;2022-07-29T02:23:25;1.52;;;1.42;;
15443;SDS011;7822;48.146;11.576;2022-07-29T02:25:54;1.48;;;1.23;;
15443;SDS011;7822;48.146;11.576;2022-07-29T02:28:24;1.67;;;1.50;;
15443;SDS011;7822;48.146;11.576;2022-07-29T02:30:56;2.00;;;1.38;;
15443;SDS011;7822;48.146;11.576;2022-07-29T02:33:28;1.70;;;1.60;;
15443;SDS011;7822;48.146;11.576;2022-07-29T02:35:59;1.67;;;1.58;;
15443;SDS011;7822;48.146;11.576;2022-07-29T02:38:30;1.88;;;1.77;;
15443;SDS011;7822;48.146;11.576;2022-07-29T02:41:41;1.33;;;1.23;;
15443;SDS011;7822;48.146;11.576;2022-07-29T02:44:14;1.45;;;1.35;;
15443;SDS011;7822;48.146;11.576;2022-07-29T02:46:45;2.13;;;1.60;;
15443;SDS011;7822;48.146;11.576;2022-07-29T02:49:27;2.10;;;1.30;;
15443;SDS011;7822;48.146;11.576;2022-07-29T02:52:02;1.33;;;1.10;;
15443;SDS011;7822;48.146;11.576;2022-07-29T02:54:37;1.60;;;1.20;;
15443;SDS011;7822;48.146;11.576;2022-07-29T03:07:06;1.42;;;1.20;;
15443;SDS011;7822;48.146;11.576;2022-07-29T03:09:36;1.30;;;1.20;;
15443;SDS011;7822;48.146;11.576;2022-07-29T03:12:05;1.08;;;1.05;;
15443;SDS011;7822;48.146;11.576;2022-07-29T03:14:34;1.10;;;1.10;;
15443;SDS011;7822;48.146;11.576;2022-07-29T03:17:04;1.70;;;1.10;;
15443;SDS011;7822;48.146;11.576;2022-07-29T03:32:39;2.05;;;1.35;;
15443;SDS011;7822;48.146;11.576;2022-07-29T03:46:41;0.80;;;0.80;;
15443;SDS011;7822;48.146;11.576;2022-07-29T03:52:12;1.10;;;1.05;;
15443;SDS011;7822;48.146;11.576;2022-07-29T03:54:40;1.35;;;1.02;;
15443;SDS011;7822;48.146;11.576;2022-07-29T03:57:08;1.30;;;1.20;;
15443;SDS011;7822;48.146;11.576;2022-07-29T04:03:26;1.00;;;1.00;;
15443;SDS011;7822;48.146;11.576;2022-07-29T04:05:57;1.52;;;1.42;;
15443;SDS011;7822;48.146;11.576;2022-07-29T04:08:28;2.30;;;1.90;;
15443;SDS011;7822;48.146;11.576;2022-07-29T04:10:56;2.47;;;1.80;;
15443;SDS011;7822;48.146;11.576;2022-07-29T04:13:24;1.92;;;1.75;;
15443;SDS011;7822;48.146;11.576;2022-07-29T04:15:52;2.30;;;1.67;;
15443;SDS011;7822;48.146;11.576;2022-07-29T04:18:20;1.92;;;1.83;;
15443;SDS011;7822;48.146;11.576;2022-07-29T04:20:48;1.98;;;1.77;;
15443;SDS011;7822;48.146;11.576;2022-07-29T04:23:16;1.77;;;1.67;;
15443;SDS011;7822;48.146;11.576;2022-07-29T04:25:45;3.55;;;1.88;;
15443;SDS011;7822;48.146;11.576;2022-07-29T04:28:13;1.60;;;1.50;;
15443;SDS011;7822;48.146;11.576;2022-07-29T04:30:44;1.67;;;1.35;;
15443;SDS011;7822;48.146;11.576;2022-07-29T04:33:11;1.70;;;1.60;;
15443;SDS011;7822;48.146;11.576;2022-07-29T06:11:51;4.60;;;2.83;;
15443;SDS011;7822;48.146;11.576;2022-07-29T06:14:19;2.88;;;2.58;;
15443;SDS011;7822;48.146;11.576;2022-07-29T06:16:47;3.45;;;2.30;;
15443;SDS011;7822;48.146;11.576;2022-07-29T06:19:15;2.95;;;2.38;;
15443;SDS011;7822;48.146;11.576;2022-07-29T06:21:43;2.30;;;2.00;;
15443;SDS011;7822;48.146;11.576;2022-07-29T06:24:13;2.35;;;2.10;;
15443;SDS011;7822;48.146;11.576;2022-07-29T06:53:51;2.20;;;2.10;;
15443;SDS011;7822;48.146;11.576;2022-07-29T08:21:51;1.70;;;1.60;;
15443;SDS011;7822;48.146;11.576;2022-07-29T08:24:20;1.60;;;1.50;;
15443;SDS011;7822;48.146;11.576;2022-07-29T08:27:06;2.20;;;2.00;;
15443;SDS011;7822;48.146;11.576;2022-07-29T08:29:55;1.95;;;1.67;;
15443;SDS011;7822;48.146;11.576;2022-07-29T08:32:23;2.17;;;1.77;;
15443;SDS011;7822;48.146;11.576;2022-07-29T08:35:11;1.88;;;1.73;;
15443;SDS011;7822;48.146;11.576;2022-07-29T08:40:53;2.17;;;2.08;;
15443;SDS011;7822;48.146;11.576;2022-07-29T08:43:22;2.40;;;2.20;;
15443;SDS011;7822;48.146;11.576;2022-07-29T08:45:50;2.80;;;2.00;;
15443;SDS011;7822;48.146;11.576;2022-07-29T08:51:51;2.33;;;2.20;;
15443;SDS011;7822;48.146;11.576;2022-07-29T08:54:21;2.33;;;2.10;;
15443;SDS011;7822;48.146;11.576;2022-07-29T08:56:52;2.60;;;2.40;;
15443;SDS011;7822;48.146;11.576;2022-07-29T09:43:39;3.45;;;3.15;;
15443;SDS011;7822;48.146;11.576;2022-07-29T09:46:10;3.67;;;2.70;;
15443;SDS011;7822;48.146;11.576;2022-07-29T09:48:38;2.95;;;2.75;;
15443;SDS011;7822;48.146;11.576;2022-07-29T09:51:16;2.78;;;2.53;;
15443;SDS011;7822;48.146;11.576;2022-07-29T09:53:55;3.03;;;2.70;;
15443;SDS011;7822;48.146;11.576;2022-07-29T09:56:34;3.35;;;2.90;;
15443;SDS011;7822;48.146;11.576;2022-07-29T10:01:52;3.17;;;2.88;;
15443;SDS011;7822;48.146;11.576;2022-07-29T10:14:24;2.70;;;2.50;;
15443;SDS011;7822;48.146;11.576;2022-07-29T10:20:07;3.55;;;2.88;;
15443;SDS011;7822;48.146;11.576;2022-07-29T10:22:41;3.22;;;3.03;;
15443;SDS011;7822;48.146;11.576;2022-07-29T10:25:19;3.47;;;2.97;;
15443;SDS011;7822;48.146;11.576;2022-07-29T10:27:48;3.22;;;2.92;;
15443;SDS011;7822;48.146;11.576;2022-07-29T10:30:18;3.38;;;3.08;;
15443;SDS011;7822;48.146;11.576;2022-07-29T10:33:08;3.88;;;3.05;;
15443;SDS011;7822;48.146;11.576;2022-07-29T10:35:44;3.55;;;3.25;;
15443;SDS011;7822;48.146;11.576;2022-07-29T10:38:27;3.72;;;3.15;;
15443;SDS011;7822;48.146;11.576;2022-07-29T10:41:14;3.75;;;3.25;;
15443;SDS011;7822;48.146;11.576;2022-07-29T10:44:13;3.25;;;3.03;;
15443;SDS011;7822;48.146;11.576;2022-07-29T10:46:44;3.70;;;3.25;;
15443;SDS011;7822;48.146;11.576;2022-07-29T10:49:15;3.97;;;3.38;;
15443;SDS011;7822;48.146;11.576;2022-07-29T10:54:38;3.38;;;2.83;;
15443;SDS011;7822;48.146;11.576;2022-07-29T10:57:19;3.70;;;3.40;;
15443;SDS011;7822;48.146;11.576;2022-07-29T11:00:31;3.17;;;2.97;;
15443;SDS011;7822;48.146;11.576;2022-07-29T11:03:04;3.50;;;3.00;;
15443;SDS011;7822;48.146;11.576;2022-07-29T11:05:55;4.80;;;3.45;;
15443;SDS011;7822;48.146;11.576;2022-07-29T11:08:27;3.33;;;2.95;;
15443;SDS011;7822;48.146;11.576;2022-07-29T11:14:16;3.22;;;3.00;;
15443;SDS011;7822;48.146;11.576;2022-07-29T11:17:01;3.17;;;2.97;;
15443;SDS011;7822;48.146;11.576;2022-07-29T11:19:32;3.50;;;3.25;;
15443;SDS011;7822;48.146;11.576;2022-07-29T11:22:03;3.00;;;2.80;;
15443;SDS011;7822;48.146;11.576;2022-07-29T11:24:36;3.78;;;3.45;;
15443;SDS011;7822;48.146;11.576;2022-07-29T11:27:16;3.30;;;3.10;;
15443;SDS011;7822;48.146;11.576;2022-07-29T11:29:49;2.92;;;2.72;;
15443;SDS011;7822;48.146;11.576;2022-07-29T11:32:20;3.38;;;3.08;;
15443;SDS011;7822;48.146;11.576;2022-07-29T11:34:49;3.03;;;2.83;;
15443;SDS011;7822;48.146;11.576;2022-07-29T11:43:51;3.55;;;3.00;;
15443;SDS011;7822;48.146;11.576;2022-07-29T11:49:19;3.67;;;3.38;;
15443;SDS011;7822;48.146;11.576;2022-07-29T11:52:08;3.08;;;2.80;;
15443;SDS011;7822;48.146;11.576;2022-07-29T11:54:43;3.92;;;2.88;;
15443;SDS011;7822;48.146;11.576;2022-07-29T11:57:25;2.92;;;2.72;;
15443;SDS011;7822;48.146;11.576;2022-07-29T12:00:03;3.15;;;2.83;;
15443;SDS011;7822;48.146;11.576;2022-07-29T12:02:52;2.70;;;2.47;;
15443;SDS011;7822;48.146;11.576;2022-07-29T12:05:34;3.35;;;2.85;;
15443;SDS011;7822;48.146;11.576;2022-07-29T12:08:17;3.35;;;3.00;;
15443;SDS011;7822;48.146;11.576;2022-07-29T12:10:50;2.58;;;2.33;;
15443;SDS011;7822;48.146;11.576;2022-07-29T12:13:19;3.63;;;2.78;;
15443;SDS011;7822;48.146;11.576;2022-07-29T12:16:03;2.90;;;2.70;;
15443;SDS011;7822;48.146;11.576;2022-07-29T12:18:31;3.13;;;2.92;;
15443;SDS011;7822;48.146;11.576;2022-07-29T12:21:00;3.97;;;2.83;;
15443;SDS011;7822;48.146;11.576;2022-07-29T12:23:30;3.45;;;3.15;;
15443;SDS011;7822;48.146;11.576;2022-07-29T12:26:03;2.95;;;2.75;;
15443;SDS011;7822;48.146;11.576;2022-07-29T12:28:36;4.10;;;2.75;;
15443;SDS011;7822;48.146;11.576;2022-07-29T12:31:05;3.25;;;2.95;;
15443;SDS011;7822;48.146;11.576;2022-07-29T12:33:59;3.17;;;2.95;;
15443;SDS011;7822;48.146;11.576;2022-07-29T12:36:27;3.03;;;2.83;;
15443;SDS011;7822;48.146;11.576;2022-07-29T12:38:55;3.33;;;2.85;;
15443;SDS011;7822;48.146;11.576;2022-07-29T12:41:25;4.65;;;2.97;;
15443;SDS011;7822;48.146;11.576;2022-07-29T12:43:55;2.92;;;2.72;;
15443;SDS011;7822;48.146;11.576;2022-07-29T12:46:23;4.60;;;3.03;;
15443;SDS011;7822;48.146;11.576;2022-07-29T12:48:54;3.20;;;2.90;;
15443;SDS011;7822;48.146;11.576;2022-07-29T12:51:28;3.08;;;2.75;;
15443;SDS011;7822;48.146;11.576;2022-07-29T12:54:07;3.50;;;3.03;;
15443;SDS011;7822;48.146;11.576;2022-07-29T12:56:57;3.20;;;3.00;;
15443;SDS011;7822;48.146;11.576;2022-07-29T12:59:29;3.72;;;3.08;;
15443;SDS011;7822;48.146;11.576;2022-07-29T13:01:57;3.53;;;3.10;;
15443;SDS011;7822;48.146;11.576;2022-07-29T13:04:28;2.83;;;2.63;;
15443;SDS011;7822;48.146;11.576;2022-07-29T13:07:01;3.33;;;3.13;;
15443;SDS011;7822;48.146;11.576;2022-07-29T13:10:13;2.83;;;2.63;;
15443;SDS011;7822;48.146;11.576;2022-07-29T13:15:36;3.13;;;2.83;;
15443;SDS011;7822;48.146;11.576;2022-07-29T13:18:05;2.97;;;2.70;;
15443;SDS011;7822;48.146;11.576;2022-07-29T13:20:53;3.22;;;2.92;;
15443;SDS011;7822;48.146;11.576;2022-07-29T13:23:21;3.40;;;3.08;;
15443;SDS011;7822;48.146;11.576;2022-07-29T13:25:51;3.00;;;2.80;;
15443;SDS011;7822;48.146;11.576;2022-07-29T13:28:23;3.22;;;2.92;;
15443;SDS011;7822;48.146;11.576;2022-07-29T13:30:51;3.63;;;3.25;;
15443;SDS011;7822;48.146;11.576;2022-07-29T13:33:19;3.45;;;2.65;;
15443;SDS011;7822;48.146;11.576;2022-07-29T13:35:47;3.33;;;3.08;;
15443;SDS011;7822;48.146;11.576;2022-07-29T13:38:14;3.13;;;2.92;;
15443;SDS011;7822;48.146;11.576;2022-07-29T13:40:43;2.70;;;2.50;;
15443;SDS011;7822;48.146;11.576;2022-07-29T13:43:14;3.03;;;2.72;;
15443;SDS011;7822;48.146;11.576;2022-07-29T13:45:43;2.55;;;2.40;;
15443;SDS011;7822;48.146;11.576;2022-07-29T13:48:11;2.83;;;2.63;;
15443;SDS011;7822;48.146;11.576;2022-07-29T13:50:39;4.38;;;3.15;;
15443;SDS011;7822;48.146;11.576;2022-07-29T13:53:07;3.53;;;3.22;;
15443;SDS011;7822;48.146;11.576;2022-07-29T13:55:42;3.03;;;2.83;;
15443;SDS011;7822;48.146;11.576;2022-07-29T13:58:10;4.05;;;2.80;;
15443;SDS011;7822;48.146;11.576;2022-07-29T14:00:38;2.92;;;2.72;;
15443;SDS011;7822;48.146;11.576;2022-07-29T14:03:07;3.03;;;2.83;;
15443;SDS011;7822;48.146;11.576;2022-07-29T14:05:36;3.30;;;3.00;;
15443;SDS011;7822;48.146;11.576;2022-07-29T14:08:03;3.10;;;2.80;;
15443;SDS011;7822;48.146;11.576;2022-07-29T14:10:31;4.03;;;3.03;;
15443;SDS011;7822;48.146;11.576;2022-07-29T14:13:02;2.80;;;2.60;;
15443;SDS011;7822;48.146;11.576;2022-07-29T14:15:47;2.53;;;2.33;;
15443;SDS011;7822;48.146;11.576;2022-07-29T14:18:18;3.70;;;2.45;;
15443;SDS011;7822;48.146;11.576;2022-07-29T14:20:46;2.60;;;2.47;;
15443;SDS011;7822;48.146;11.576;2022-07-29T14:23:14;2.80;;;2.60;;
15443;SDS011;7822;48.146;11.576;2022-07-29T14:25:45;2.78;;;2.58;;
15443;SDS011;7822;48.146;11.576;2022-07-29T14:28:14;3.72;;;2.60;;
15443;SDS011;7822;48.146;11.576;2022-07-29T14:30:45;2.70;;;2.50;;
15443;SDS011;7822;48.146;11.576;2022-07-29T14:33:13;3.28;;;3.00;;
15443;SDS011;7822;48.146;11.576;2022-07-29T14:35:44;2.40;;;2.20;;
15443;SDS011;7822;48.146;11.576;2022-07-29T14:38:12;2.55;;;2.35;;
15443;SDS011;7822;48.146;11.576;2022-07-29T14:40:40;4.15;;;2.75;;
15443;SDS011;7822;48.146;11.576;2022-07-29T14:43:08;2.95;;;2.63;;
15443;SDS011;7822;48.146;11.576;2022-07-29T14:45:36;3.95;;;2.92;;
15443;SDS011;7822;48.146;11.576;2022-07-29T14:48:04;3.78;;;2.92;;
15443;SDS011;7822;48.146;11.576;2022-07-29T14:50:32;2.80;;;2.60;;
15443;SDS011;7822;48.146;11.576;2022-07-29T14:53:02;2.85;;;2.65;;
15443;SDS011;7822;48.146;11.576;2022-07-29T14:55:30;3.83;;;2.60;;
15443;SDS011;7822;48.146;11.576;2022-07-29T14:57:58;4.90;;;2.38;;
15443;SDS011;7822;48.146;11.576;2022-07-29T15:00:37;3.00;;;2.80;;
15443;SDS011;7822;48.146;11.576;2022-07-29T15:03:05;2.90;;;2.70;;
15443;SDS011;7822;48.146;11.576;2022-07-29T15:05:37;4.82;;;2.88;;
15443;SDS011;7822;48.146;11.576;2022-07-29T15:08:07;3.10;;;2.75;;
15443;SDS011;7822;48.146;11.576;2022-07-29T15:10:47;3.33;;;2.83;;
15443;SDS011;7822;48.146;11.576;2022-07-29T15:13:16;3.30;;;2.92;;
15443;SDS011;7822;48.146;11.576;2022-07-29T15:16:04;2.92;;;2.72;;
15443;SDS011;7822;48.146;11.576;2022-07-29T15:18:55;2.60;;;2.40;;
15443;SDS011;7822;48.146;11.576;2022-07-29T15:21:26;3.28;;;2.72;;
15443;SDS011;7822;48.146;11.576;2022-07-29T15:23:56;4.63;;;2.65;;
15443;SDS011;7822;48.146;11.576;2022-07-29T15:26:26;3.55;;;3.22;;
15443;SDS011;7822;48.146;11.576;2022-07-29T15:28:54;3.97;;;3.15;;
15443;SDS011;7822;48.146;11.576;2022-07-29T15:31:22;4.60;;;3.40;;
15443;SDS011;7822;48.146;11.576;2022-07-29T15:33:51;3.40;;;3.10;;
15443;SDS011;7822;48.146;11.576;2022-07-29T15:36:24;3.30;;;3.00;;
15443;SDS011;7822;48.146;11.576;2022-07-29T15:39:36;3.38;;;3.13;;
15443;SDS011;7822;48.146;11.576;2022-07-29T15:42:08;3.25;;;3.05;;
15443;SDS011;7822;48.146;11.576;2022-07-29T15:44:55;3.30;;;3.00;;
15443;SDS011;7822;48.146;11.576;2022-07-29T15:50:06;3.78;;;2.90;;
15443;SDS011;7822;48.146;11.576;2022-07-29T15:52:57;3.03;;;2.83;;
15443;SDS011;7822;48.146;11.576;2022-07-29T15:55:42;3.65;;;3.38;;
15443;SDS011;7822;48.146;11.576;2022-07-29T15:58:16;4.00;;;3.35;;
15443;SDS011;7822;48.146;11.576;2022-07-29T16:00:44;4.28;;;3.28;;
15443;SDS011;7822;48.146;11.576;2022-07-29T16:03:12;3.22;;;2.90;;
15443;SDS011;7822;48.146;11.576;2022-07-29T16:05:40;3.95;;;3.60;;
15443;SDS011;7822;48.146;11.576;2022-07-29T16:08:09;3.53;;;3.22;;
15443;SDS011;7822;48.146;11.576;2022-07-29T16:10:38;3.20;;;3.00;;
15443;SDS011;7822;48.146;11.576;2022-07-29T16:13:06;3.28;;;3.08;;
15443;SDS011;7822;48.146;11.576;2022-07-29T16:15:34;3.70;;;3.40;;
15443;SDS011;7822;48.146;11.576;2022-07-29T16:18:02;3.42;;;3.05;;
15443;SDS011;7822;48.146;11.576;2022-07-29T16:20:30;4.53;;;3.47;;
15443;SDS011;7822;48.146;11.576;2022-07-29T16:22:58;3.35;;;3.05;;
15443;SDS011;7822;48.146;11.576;2022-07-29T16:25:25;3.70;;;3.35;;
15443;SDS011;7822;48.146;11.576;2022-07-29T16:28:16;4.82;;;3.38;;
15443;SDS011;7822;48.146;11.576;2022-07-29T16:31:00;3.20;;;3.00;;
15443;SDS011;7822;48.146;11.576;2022-07-29T16:33:36;4.70;;;3.10;;
15443;SDS011;7822;48.146;11.576;2022-07-29T16:36:21;3.50;;;3.17;;
15443;SDS011;7822;48.146;11.576;2022-07-29T16:38:52;3.20;;;2.92;;
15443;SDS011;7822;48.146;11.576;2022-07-29T16:41:25;3.75;;;3.45;;
15443;SDS011;7822;48.146;11.576;2022-07-29T16:43:59;3.67;;;3.40;;
15443;SDS011;7822;48.146;11.576;2022-07-29T16:46:31;3.67;;;3.30;;
15443;SDS011;7822;48.146;11.576;2022-07-29T16:49:09;3.55;;;3.25;;
15443;SDS011;7822;48.146;11.576;2022-07-29T16:51:44;3.55;;;3.35;;
15443;SDS011;7822;48.146;11.576;2022-07-29T16:54:13;3.95;;;3.33;;
15443;SDS011;7822;48.146;11.576;2022-07-29T17:00:03;3.88;;;3.50;;
15443;SDS011;7822;48.146;11.576;2022-07-29T17:03:38;3.38;;;3.17;;
15443;SDS011;7822;48.146;11.576;2022-07-29T17:06:52;4.40;;;4.00;;
15443;SDS011;7822;48.146;11.576;2022-07-29T17:09:27;4.00;;;3.58;;
15443;SDS011;7822;48.146;11.576;2022-07-29T17:11:59;3.97;;;3.50;;
15443;SDS011;7822;48.146;11.576;2022-07-29T17:14:27;3.65;;;3.00;;
15443;SDS011;7822;48.146;11.576;2022-07-29T17:17:15;3.47;;;3.03;;
15443;SDS011;7822;48.146;11.576;2022-07-29T17:20:09;4.50;;;3.15;;
15443;SDS011;7822;48.146;11.576;2022-07-29T17:22:45;3.92;;;2.90;;
15443;SDS011;7822;48.146;11.576;2022-07-29T17:25:21;3.50;;;2.92;;
15443;SDS011;7822;48.146;11.576;2022-07-29T17:27:50;3.83;;;3.42;;
15443;SDS011;7822;48.146;11.576;2022-07-29T17:30:25;3.70;;;3.40;;
15443;SDS011;7822;48.146;11.576;2022-07-29T17:33:00;3.53;;;3.22;;
15443;SDS011;7822;48.146;11.576;2022-07-29T17:35:38;3.67;;;2.90;;
15443;SDS011;7822;48.146;11.576;2022-07-29T17:39:01;3.13;;;2.90;;
15443;SDS011;7822;48.146;11.576;2022-07-29T17:41:31;4.07;;;2.58;;
15443;SDS011;7822;48.146;11.576;2022-07-29T17:44:03;3.28;;;2.97;;
15443;SDS011;7822;48.146;11.576;2022-07-29T17:46:37;4.53;;;2.88;;
15443;SDS011;7822;48.146;11.576;2022-07-29T17:49:10;2.58;;;2.40;;
15443;SDS011;7822;48.146;11.576;2022-07-29T17:52:17;2.33;;;2.13;;
15443;SDS011;7822;48.146;11.576;2022-07-29T17:58:27;2.80;;;2.00;;
15443;SDS011;7822;48.146;11.576;2022-07-29T18:00:55;1.60;;;1.50;;
15443;SDS011;7822;48.146;11.576;2022-07-29T18:03:25;2.33;;;1.42;;
15443;SDS011;7822;48.146;11.576;2022-07-29T18:06:05;2.17;;;1.60;;
15443;SDS011;7822;48.146;11.576;2022-07-29T18:08:33;1.30;;;1.20;;
15443;SDS011;7822;48.146;11.576;2022-07-29T18:11:01;3.30;;;1.70;;
15443;SDS011;7822;48.146;11.576;2022-07-29T18:13:29;2.40;;;1.23;;
15443;SDS011;7822;48.146;11.576;2022-07-29T18:15:57;1.75;;;1.30;;
15443;SDS011;7822;48.146;11.576;2022-07-29T18:18:26;1.30;;;1.20;;
15443;SDS011;7822;48.146;11.576;2022-07-29T18:20:57;1.90;;;1.60;;
15443;SDS011;7822;48.146;11.576;2022-07-29T18:23:26;2.67;;;1.52;;
15443;SDS011;7822;48.146;11.576;2022-07-29T18:25:55;2.22;;;1.65;;
15443;SDS011;7822;48.146;11.576;2022-07-29T18:28:44;1.77;;;1.67;;
15443;SDS011;7822;48.146;11.576;2022-07-29T18:31:15;2.25;;;1.30;;
15443;SDS011;7822;48.146;11.576;2022-07-29T18:33:42;2.40;;;1.75;;
15443;SDS011;7822;48.146;11.576;2022-07-29T18:36:10;2.10;;;1.80;;
15443;SDS011;7822;48.146;11.576;2022-07-29T18:38:39;2.35;;;1.63;;
15443;SDS011;7822;48.146;11.576;2022-07-29T18:41:07;2.22;;;1.70;;
15443;SDS011;7822;48.146;11.576;2022-07-29T18:43:35;2.03;;;1.55;;
15443;SDS011;7822;48.146;11.576;2022-07-29T18:46:03;2.08;;;1.88;;
15443;SDS011;7822;48.146;11.576;2022-07-29T18:48:32;2.38;;;1.60;;
15443;SDS011;7822;48.146;11.576;2022-07-29T18:51:00;1.60;;;1.50;;
15443;SDS011;7822;48.146;11.576;2022-07-29T18:53:34;1.38;;;1.25;;
15443;SDS011;7822;48.146;11.576;2022-07-29T18:56:04;2.63;;;1.50;;
15443;SDS011;7822;48.146;11.576;2022-07-29T18:58:32;1.60;;;1.30;;
15443;SDS011;7822;48.146;11.576;2022-07-29T19:01:11;1.55;;;1.45;;
15443;SDS011;7822;48.146;11.576;2022-07-29T19:03:42;3.22;;;1.92;;
15443;SDS011;7822;48.146;11.576;2022-07-29T19:06:10;1.40;;;1.30;;
15443;SDS011;7822;48.146;11.576;2022-07-29T19:08:40;2.35;;;1.58;;
15443;SDS011;7822;48.146;11.576;2022-07-29T19:11:09;1.20;;;1.10;;
15443;SDS011;7822;48.146;11.576;2022-07-29T19:13:38;1.73;;;1.63;;
15443;SDS011;7822;48.146;11.576;2022-07-29T19:16:05;1.45;;;1.35;;
15443;SDS011;7822;48.146;11.576;2022-07-29T19:18:37;1.70;;;1.60;;
15443;SDS011;7822;48.146;11.576;2022-07-29T19:21:05;2.15;;;1.67;;
15443;SDS011;7822;48.146;11.576;2022-07-29T19:23:33;1.75;;;1.60;;
15443;SDS011;7822;48.146;11.576;2022-07-29T19:26:22;1.85;;;1.52;;
15443;SDS011;7822;48.146;11.576;2022-07-29T19:28:51;1.90;;;1.80;;
15443;SDS011;7822;48.146;11.576;2022-07-29T19:31:33;1.98;;;1.77;;
15443;SDS011;7822;48.146;11.576;2022-07-29T19:34:01;1.92;;;1.67;;
15443;SDS011;7822;48.146;11.576;2022-07-29T19:36:30;2.03;;;1.92;;
15443;SDS011;7822;48.146;11.576;2022-07-29T19:38:57;2.20;;;1.65;;
15443;SDS011;7822;48.146;11.576;2022-07-29T19:41:27;2.03;;;1.83;;
15443;SDS011;7822;48.146;11.576;2022-07-29T19:43:54;2.67;;;2.10;;
15443;SDS011;7822;48.146;11.576;2022-07-29T19:46:22;2.10;;;1.90;;
15443;SDS011;7822;48.146;11.576;2022-07-29T19:48:54;2.35;;;2.10;;
15443;SDS011;7822;48.146;11.576;2022-07-29T19:51:22;2.38;;;2.08;;
15443;SDS011;7822;48.146;11.576;2022-07-29T19:53:50;2.22;;;2.03;;
15443;SDS011;7822;48.146;11.576;2022-07-29T19:56:18;2.65;;;1.98;;
15443;SDS011;7822;48.146;11.576;2022-07-29T19:58:50;2.20;;;2.10;;
15443;SDS011;7822;48.146;11.576;2022-07-29T20:01:18;2.25;;;2.05;;
15443;SDS011;7822;48.146;11.576;2022-07-29T20:03:47;2.42;;;2.22;;
15443;SDS011;7822;48.146;11.576;2022-07-29T20:06:14;2.28;;;2.10;;
15443;SDS011;7822;48.146;11.576;2022-07-29T20:08:42;3.00;;;2.70;;
15443;SDS011;7822;48.146;11.576;2022-07-29T20:11:10;2.35;;;2.25;;
15443;SDS011;7822;48.146;11.576;2022-07-29T20:13:38;2.80;;;2.28;;
15443;SDS011;7822;48.146;11.576;2022-07-29T20:16:07;2.58;;;2.10;;
15443;SDS011;7822;48.146;11.576;2022-07-29T20:18:35;2.40;;;2.20;;
15443;SDS011;7822;48.146;11.576;2022-07-29T20:21:03;2.35;;;1.88;;
15443;SDS011;7822;48.146;11.576;2022-07-29T20:23:30;2.13;;;2.00;;
15443;SDS011;7822;48.146;11.576;2022-07-29T20:25:59;2.70;;;2.00;;
15443;SDS011;7822;48.146;11.576;2022-07-29T20:28:26;2.20;;;2.00;;
15443;SDS011;7822;48.146;11.576;2022-07-29T20:30:54;2.75;;;2.33;;
15443;SDS011;7822;48.146;11.576;2022-07-29T20:33:24;2.67;;;2.30;;
15443;SDS011;7822;48.146;11.576;2022-07-29T20:35:52;1.98;;;1.88;;
15443;SDS011;7822;48.146;11.576;2022-07-29T20:38:20;2.45;;;2.28;;
15443;SDS011;7822;48.146;11.576;2022-07-29T20:40:51;2.50;;;2.30;;
15443;SDS011;7822;48.146;11.576;2022-07-29T20:43:27;2.15;;;1.95;;
15443;SDS011;7822;48.146;11.576;2022-07-29T20:46:04;2.30;;;2.20;;
15443;SDS011;7822;48.146;11.576;2022-07-29T20:48:34;3.67;;;2.70;;
15443;SDS011;7822;48.146;11.576;2022-07-29T20:51:02;2.60;;;2.40;;
15443;SDS011;7822;48.146;11.576;2022-07-29T20:53:30;2.58;;;2.10;;
15443;SDS011;7822;48.146;11.576;2022-07-29T20:56:04;2.20;;;2.00;;
15443;SDS011;7822;48.146;11.576;2022-07-29T20:58:32;2.33;;;2.22;;
15443;SDS011;7822;48.146;11.576;2022-07-29T21:01:04;2.70;;;2.50;;
15443;SDS011;7822;48.146;11.576;2022-07-29T21:03:35;3.08;;;2.20;;
15443;SDS011;7822;48.146;11.576;2022-07-29T21:06:03;4.30;;;3.90;;
15443;SDS011;7822;48.146;11.576;2022-07-29T21:08:34;2.53;;;2.33;;
15443;SDS011;7822;48.146;11.576;2022-07-29T21:11:03;3.40;;;2.65;;
15443;SDS011;7822;48.146;11.576;2022-07-29T21:13:37;2.33;;;2.13;;
15443;SDS011;7822;48.146;11.576;2022-07-29T21:16:12;2.22;;;2.13;;
15443;SDS011;7822;48.146;11.576;2022-07-29T21:18:45;1.95;;;1.75;;
15443;SDS011;7822;48.146;11.576;2022-07-29T21:21:15;2.20;;;2.00;;
15443;SDS011;7822;48.146;11.576;2022-07-29T21:23:43;2.55;;;2.35;;
15443;SDS011;7822;48.146;11.576;2022-07-29T21:26:12;2.75;;;2.55;;
15443;SDS011;7822;48.146;11.576;2022-07-29T21:28:41;3.08;;;2.13;;
15443;SDS011;7822;48.146;11.576;2022-07-29T21:31:09;2.83;;;2.63;;
15443;SDS011;7822;48.146;11.576;2022-07-29T21:33:39;2.38;;;2.28;;
15443;SDS011;7822;48.146;11.576;2022-07-29T21:36:11;2.53;;;2.33;;
15443;SDS011;7822;48.146;11.576;2022-07-29T21:39:00;2.40;;;2.30;;
15443;SDS011;7822;48.146;11.576;2022-07-29T21:41:32;4.32;;;2.50;;
15443;SDS011;7822;48.146;11.576;2022-07-29T21:44:01;2.30;;;2.20;;
15443;SDS011;7822;48.146;11.576;2022-07-29T21:46:29;3.42;;;2.63;;
15443;SDS011;7822;48.146;11.576;2022-07-29T21:48:57;2.58;;;2.38;;
15443;SDS011;7822;48.146;11.576;2022-07-29T21:51:26;2.63;;;2.40;;
15443;SDS011;7822;48.146;11.576;2022-07-29T21:53:54;3.75;;;3.33;;
15443;SDS011;7822;48.146;11.576;2022-07-29T21:56:24;2.78;;;2.58;;
15443;SDS011;7822;48.146;11.576;2022-07-29T21:58:53;2.42;;;2.22;;
15443;SDS011;7822;48.146;11.576;2022-07-29T22:01:21;2.60;;;2.40;;
15443;SDS011;7822;48.146;11.576;2022-07-29T22:03:50;2.75;;;2.55;;
15443;SDS011;7822;48.146;11.576;2022-07-29T22:06:18;3.15;;;2.85;;
15443;SDS011;7822;48.146;11.576;2022-07-29T22:08:47;3.30;;;3.00;;
15443;SDS011;7822;48.146;11.576;2022-07-29T22:11:15;3.20;;;2.90;;
15443;SDS011;7822;48.146;11.576;2022-07-29T22:13:45;3.25;;;2.70;;
15443;SDS011;7822;48.146;11.576;2022-07-29T22:16:13;3.08;;;2.88;;
15443;SDS011;7822;48.146;11.576;2022-07-29T22:18:41;3.83;;;2.90;;
15443;SDS011;7822;48.146;11.576;2022-07-29T22:21:11;2.55;;;2.30;;
15443;SDS011;7822;48.146;11.576;2022-07-29T22:23:39;2.40;;;2.20;;
15443;SDS011;7822;48.146;11.576;2022-07-29T22:26:09;2.67;;;2.47;;
15443;SDS011;7822;48.146;11.576;2022-07-29T22:28:38;2.25;;;1.92;;
15443;SDS011;7822;48.146;11.576;2022-07-29T22:31:06;2.25;;;2.05;;
15443;SDS011;7822;48.146;11.576;2022-07-29T22:33:34;2.33;;;2.08;;
15443;SDS011;7822;48.146;11.576;2022-07-29T22:36:01;3.10;;;2.20;;
15443;SDS011;7822;48.146;11.576;2022-07-29T22:38:29;2.33;;;2.13;;
15443;SDS011;7822;48.146;11.576;2022-07-29T22:40:57;2.65;;;2.10;;
15443;SDS011;7822;48.146;11.576;2022-07-29T22:43:29;2.40;;;2.20;;
15443;SDS011;7822;48.146;11.576;2022-07-29T22:45:57;2.35;;;1.98;;
15443;SDS011;7822;48.146;11.576;2022-07-29T22:48:27;2.85;;;2.17;;
15443;SDS011;7822;48.146;11.576;2022-07-29T22:50:55;2.42;;;2.22;;
15443;SDS011;7822;48.146;11.576;2022-07-29T22:53:23;2.38;;;2.17;;
15443;SDS011;7822;48.146;11.576;2022-07-29T22:55:51;2.38;;;2.03;;
15443;SDS011;7822;48.146;11.576;2022-07-29T22:58:19;2.08;;;1.95;;
15443;SDS011;7822;48.146;11.576;2022-07-29T23:00:48;2.30;;;2.20;;
15443;SDS011;7822;48.146;11.576;2022-07-29T23:03:16;1.85;;;1.70;;
15443;SDS011;7822;48.146;11.576;2022-07-29T23:05:44;1.98;;;1.80;;
15443;SDS011;7822;48.146;11.576;2022-07-29T23:08:11;2.30;;;2.10;;
15443;SDS011;7822;48.146;11.576;2022-07-29T23:10:39;3.13;;;2.13;;
15443;SDS011;7822;48.146;11.576;2022-07-29T23:13:07;5.15;;;2.30;;
15443;SDS011;7822;48.146;11.576;2022-07-29T23:15:35;2.40;;;2.22;;